Navia — EATZ — position and weather

sailwx.info

Track history (hours):
 
Tides and Currents Weather Stations Pressure Air Temp Water Temp Dewpoint Dewpoint Depression Visibility Wind Speed Wind Dir Waves Ship Positions

Navia

Last reported at 2018-Feb-19 17:27 UTC. Time now 2018-Feb-19 17:56 UTC.
Position N 43°34' W 005°42'.

Length 30 m; draft 4.5 m.

Type: Tug. MMSI: 224164000.

Date/timePositionNaut miles runAvg speedWind from/ knotsBaromVisibWave heightAir tempDewpointWater temp
2018-Feb-19 17:27N 43°34' W 005°42'1 1.4
2018-Feb-19 17:00N 43°34' W 005°41'0 0.3
2018-Feb-19 16:29N 43°34' W 005°41'1 0.8
2018-Feb-19 15:46N 43°34' W 005°42'0 0.0
2018-Feb-19 15:17N 43°34' W 005°42'0 0.0
2018-Feb-19 14:59N 43°34' W 005°42'0 0.0
2018-Feb-19 14:30N 43°34' W 005°42'0 0.0
2018-Feb-19 13:58N 43°34' W 005°42'0 0.0
2018-Feb-19 13:25N 43°34' W 005°42'0 0.0
2018-Feb-19 12:59N 43°34' W 005°42'0 0.0
2018-Feb-19 12:29N 43°34' W 005°42'0 0.0
2018-Feb-19 11:56N 43°34' W 005°42'0 0.0
2018-Feb-19 11:28N 43°34' W 005°42'0 0.0
2018-Feb-19 11:00N 43°34' W 005°42'0 0.0
2018-Feb-19 10:25N 43°34' W 005°42'0 0.0
2018-Feb-19 09:59N 43°34' W 005°42'0 0.0
2018-Feb-19 09:29N 43°34' W 005°42'0 0.0
2018-Feb-19 08:55N 43°34' W 005°42'0 0.0
2018-Feb-19 08:29N 43°34' W 005°42'0 0.0
2018-Feb-19 08:00N 43°34' W 005°42'0 0.0
2018-Feb-18 14:25N 43°34' W 005°42'1 1.9
2018-Feb-18 14:00N 43°34' W 005°41'1 1.8
2018-Feb-18 13:31N 43°35' W 005°40'2 2.6
2018-Feb-18 12:53N 43°34' W 005°42'0 0.0
2018-Feb-18 12:28N 43°34' W 005°42'  
2018-Feb-16 03:21N 43°34' W 005°42'1 1.7
2018-Feb-16 03:00N 43°34' W 005°41'0 0.1
2018-Feb-16 02:30N 43°34' W 005°41'0 1.0
2018-Feb-16 02:00N 43°34' W 005°41'2 4.3
2018-Feb-16 01:30N 43°36' W 005°40'3 5.1
2018-Feb-16 01:00N 43°34' W 005°42'0 0.0
2018-Feb-15 16:13N 43°34' W 005°42'0 0.0
2018-Feb-15 15:59N 43°34' W 005°42'0 0.0
2018-Feb-15 15:29N 43°34' W 005°42'0 0.0
2018-Feb-15 15:00N 43°34' W 005°42'0 0.0
2018-Feb-15 14:30N 43°34' W 005°42'0 0.0
2018-Feb-15 13:54N 43°34' W 005°42'0 0.0
2018-Feb-15 13:15N 43°34' W 005°42'0 0.0
2018-Feb-15 12:58N 43°34' W 005°42'0 0.0
2018-Feb-15 12:29N 43°34' W 005°42'0 0.0
2018-Feb-15 12:00N 43°34' W 005°42'0 0.0
2018-Feb-15 11:17N 43°34' W 005°42'0 0.1
2018-Feb-15 10:59N 43°34' W 005°42'0 0.0
2018-Feb-15 10:20N 43°34' W 005°42'0 0.0
2018-Feb-15 09:51N 43°34' W 005°42'0 0.0
2018-Feb-15 09:26N 43°34' W 005°42'0 0.0
2018-Feb-15 08:55N 43°34' W 005°42'0 0.0
2018-Feb-14 19:04N 43°34' W 005°42'0 0.1
2018-Feb-14 19:00N 43°34' W 005°42'1 1.5
2018-Feb-14 18:29N 43°34' W 005°41'1 2.2
2018-Feb-14 18:00N 43°35' W 005°40'1 2.7
2018-Feb-14 17:30N 43°34' W 005°41'1 0.0
2018-Feb-13 14:19N 43°34' W 005°42'1 3.8
2018-Feb-13 14:00N 43°34' W 005°41'1 1.0
2018-Feb-13 13:26N 43°35' W 005°41'1 0.9
2018-Feb-13 12:53N 43°34' W 005°40'1 3.3
2018-Feb-13 12:30N 43°34' W 005°42'0 0.0
2018-Feb-12 09:16N 43°34' W 005°42'0 0.2
2018-Feb-12 09:00N 43°34' W 005°42'0 0.0
2018-Feb-10 20:55N 43°34' W 005°42'1 1.3
2018-Feb-10 20:30N 43°34' W 005°41'0 0.1
2018-Feb-10 20:00N 43°34' W 005°41'0 0.6
2018-Feb-10 19:30N 43°34' W 005°41'2 4.1
2018-Feb-10 19:01N 43°36' W 005°40'2 3.8
2018-Feb-10 18:30N 43°34' W 005°41'1 0.2
2018-Feb-10 14:03N 43°34' W 005°42'0 0.2
2018-Feb-10 13:59N 43°34' W 005°42'1 1.2
2018-Feb-10 13:30N 43°34' W 005°41'0 0.6
2018-Feb-10 12:51N 43°34' W 005°41'1 0.5
2018-Feb-10 10:51N 43°34' W 005°42'1 3.2
2018-Feb-10 10:30N 43°35' W 005°41'0 0.5
2018-Feb-10 10:00N 43°35' W 005°41'1 1.0
2018-Feb-10 09:27N 43°35' W 005°40'  
Track history (hours):
 
Tides and Currents Weather Stations Pressure Air Temp Water Temp Dewpoint Dewpoint Depression Visibility Wind Speed Wind Dir Waves Ship Positions

Navia

Last reported at 2018-Feb-19 17:27 UTC. Time now 2018-Feb-19 17:56 UTC.
Position N 43°34' W 005°42'.

Length 30 m; draft 4.5 m.

Type: Tug. MMSI: 224164000.

Date/timePositionNaut miles runAvg speedWind from/ knotsBaromVisibWave heightAir tempDewpointWater temp
2018-Feb-19 17:27N 43°34' W 005°42'1 1.4
2018-Feb-19 17:00N 43°34' W 005°41'0 0.3
2018-Feb-19 16:29N 43°34' W 005°41'1 0.8
2018-Feb-19 15:46N 43°34' W 005°42'0 0.0
2018-Feb-19 15:17N 43°34' W 005°42'0 0.0
2018-Feb-19 14:59N 43°34' W 005°42'0 0.0
2018-Feb-19 14:30N 43°34' W 005°42'0 0.0
2018-Feb-19 13:58N 43°34' W 005°42'0 0.0
2018-Feb-19 13:25N 43°34' W 005°42'0 0.0
2018-Feb-19 12:59N 43°34' W 005°42'0 0.0
2018-Feb-19 12:29N 43°34' W 005°42'0 0.0
2018-Feb-19 11:56N 43°34' W 005°42'0 0.0
2018-Feb-19 11:28N 43°34' W 005°42'0 0.0
2018-Feb-19 11:00N 43°34' W 005°42'0 0.0
2018-Feb-19 10:25N 43°34' W 005°42'0 0.0
2018-Feb-19 09:59N 43°34' W 005°42'0 0.0
2018-Feb-19 09:29N 43°34' W 005°42'0 0.0
2018-Feb-19 08:55N 43°34' W 005°42'0 0.0
2018-Feb-19 08:29N 43°34' W 005°42'0 0.0
2018-Feb-19 08:00N 43°34' W 005°42'0 0.0
2018-Feb-18 14:25N 43°34' W 005°42'1 1.9
2018-Feb-18 14:00N 43°34' W 005°41'1 1.8
2018-Feb-18 13:31N 43°35' W 005°40'2 2.6
2018-Feb-18 12:53N 43°34' W 005°42'0 0.0
2018-Feb-18 12:28N 43°34' W 005°42'  
2018-Feb-16 03:21N 43°34' W 005°42'1 1.7
2018-Feb-16 03:00N 43°34' W 005°41'0 0.1
2018-Feb-16 02:30N 43°34' W 005°41'0 1.0
2018-Feb-16 02:00N 43°34' W 005°41'2 4.3
2018-Feb-16 01:30N 43°36' W 005°40'3 5.1
2018-Feb-16 01:00N 43°34' W 005°42'0 0.0
2018-Feb-15 16:13N 43°34' W 005°42'0 0.0
2018-Feb-15 15:59N 43°34' W 005°42'0 0.0
2018-Feb-15 15:29N 43°34' W 005°42'0 0.0
2018-Feb-15 15:00N 43°34' W 005°42'0 0.0
2018-Feb-15 14:30N 43°34' W 005°42'0 0.0
2018-Feb-15 13:54N 43°34' W 005°42'0 0.0
2018-Feb-15 13:15N 43°34' W 005°42'0 0.0
2018-Feb-15 12:58N 43°34' W 005°42'0 0.0
2018-Feb-15 12:29N 43°34' W 005°42'0 0.0
2018-Feb-15 12:00N 43°34' W 005°42'0 0.0
2018-Feb-15 11:17N 43°34' W 005°42'0 0.1
2018-Feb-15 10:59N 43°34' W 005°42'0 0.0
2018-Feb-15 10:20N 43°34' W 005°42'0 0.0
2018-Feb-15 09:51N 43°34' W 005°42'0 0.0
2018-Feb-15 09:26N 43°34' W 005°42'0 0.0
2018-Feb-15 08:55N 43°34' W 005°42'0 0.0
2018-Feb-14 19:04N 43°34' W 005°42'0 0.1
2018-Feb-14 19:00N 43°34' W 005°42'1 1.5
2018-Feb-14 18:29N 43°34' W 005°41'1 2.2
2018-Feb-14 18:00N 43°35' W 005°40'1 2.7
2018-Feb-14 17:30N 43°34' W 005°41'1 0.0
2018-Feb-13 14:19N 43°34' W 005°42'1 3.8
2018-Feb-13 14:00N 43°34' W 005°41'1 1.0
2018-Feb-13 13:26N 43°35' W 005°41'1 0.9
2018-Feb-13 12:53N 43°34' W 005°40'1 3.3
2018-Feb-13 12:30N 43°34' W 005°42'0 0.0
2018-Feb-12 09:16N 43°34' W 005°42'0 0.2
2018-Feb-12 09:00N 43°34' W 005°42'0 0.0
2018-Feb-10 20:55N 43°34' W 005°42'1 1.3
2018-Feb-10 20:30N 43°34' W 005°41'0 0.1
2018-Feb-10 20:00N 43°34' W 005°41'0 0.6
2018-Feb-10 19:30N 43°34' W 005°41'2 4.1
2018-Feb-10 19:01N 43°36' W 005°40'2 3.8
2018-Feb-10 18:30N 43°34' W 005°41'1 0.2
2018-Feb-10 14:03N 43°34' W 005°42'0 0.2
2018-Feb-10 13:59N 43°34' W 005°42'1 1.2
2018-Feb-10 13:30N 43°34' W 005°41'0 0.6
2018-Feb-10 12:51N 43°34' W 005°41'1 0.5
2018-Feb-10 10:51N 43°34' W 005°42'1 3.2
2018-Feb-10 10:30N 43°35' W 005°41'0 0.5
2018-Feb-10 10:00N 43°35' W 005°41'1 1.0
2018-Feb-10 09:27N 43°35' W 005°40'  

Dump ship's entire track history